createdAt,value
2018-07-13T00:00:46.521Z,6.04
2018-07-13T00:06:41.546Z,6.19
2018-07-13T00:12:36.504Z,5.95
2018-07-13T00:18:31.531Z,6.98
2018-07-13T00:24:26.533Z,6.27
2018-07-13T00:30:21.588Z,6.28
2018-07-13T00:36:16.628Z,6.66
2018-07-13T00:42:11.547Z,6.63
2018-07-13T00:48:06.559Z,6.43
2018-07-13T00:54:01.563Z,6.55
2018-07-13T00:59:56.550Z,6.61
2018-07-13T01:05:51.613Z,6.69
2018-07-13T01:11:46.566Z,6.59
2018-07-13T01:17:41.601Z,6.54
2018-07-13T01:23:36.578Z,6.13
2018-07-13T01:29:31.637Z,6.83
2018-07-13T01:35:26.586Z,6.84
2018-07-13T01:41:21.575Z,7.54
2018-07-13T01:47:16.600Z,6.78
2018-07-13T01:53:11.578Z,6.93
2018-07-13T01:59:06.603Z,6.42
2018-07-13T02:05:01.762Z,6.44
2018-07-13T02:10:56.588Z,7.11
2018-07-13T02:16:51.607Z,6.73
2018-07-13T02:22:46.628Z,6.84
2018-07-13T02:28:41.657Z,7.21
2018-07-13T02:34:36.621Z,6.43
2018-07-13T02:40:31.624Z,7.21
2018-07-13T02:46:26.622Z,7.38
2018-07-13T02:52:21.655Z,7.25
2018-07-13T02:58:16.651Z,7.6
2018-07-13T03:04:11.633Z,7.91
2018-07-13T03:10:06.873Z,7.53
2018-07-13T03:16:01.669Z,7.81
2018-07-13T03:21:56.631Z,6.93
2018-07-13T03:27:51.686Z,6.5
2018-07-13T03:33:46.647Z,7.48
2018-07-13T03:39:41.736Z,7.28
2018-07-13T03:45:36.668Z,6.83
2018-07-13T03:51:31.720Z,7.34
2018-07-13T03:57:26.685Z,7.2
2018-07-13T04:03:21.690Z,6.99
2018-07-13T04:09:16.669Z,7.5
2018-07-13T04:15:11.693Z,7.07
2018-07-13T04:21:06.711Z,6.96
2018-07-13T04:27:01.750Z,7.2
2018-07-13T04:32:56.766Z,7.48
2018-07-13T04:38:51.683Z,7.75
2018-07-13T04:44:46.712Z,7.7
2018-07-13T04:50:41.720Z,7.63
2018-07-13T04:56:36.758Z,7.45
2018-07-13T05:02:31.755Z,6.74
2018-07-13T05:08:26.711Z,6.77
2018-07-13T05:14:21.774Z,7.73
2018-07-13T05:20:16.783Z,8.34
2018-07-13T05:26:11.757Z,9.18
2018-07-13T05:32:06.758Z,18.16
2018-07-13T05:38:01.767Z,14.42
2018-07-13T05:43:56.749Z,14.99
2018-07-13T05:49:51.757Z,12.07
2018-07-13T05:55:46.760Z,11.38
2018-07-13T06:01:41.835Z,10.59
2018-07-13T06:07:36.765Z,9.22
2018-07-13T06:13:31.782Z,8.61
2018-07-13T06:19:26.792Z,8.72
2018-07-13T06:25:21.798Z,8.12
2018-07-13T06:31:16.814Z,7.83
2018-07-13T06:37:11.856Z,8.33
2018-07-13T06:43:06.799Z,8.73
2018-07-13T06:49:01.875Z,7.96
2018-07-13T06:54:56.794Z,7.16
2018-07-13T07:00:51.823Z,7.1
2018-07-13T07:06:46.843Z,6.1
2018-07-13T07:12:41.812Z,6.55
2018-07-13T07:18:36.809Z,6.21
2018-07-13T07:24:31.911Z,5.51
2018-07-13T07:30:26.814Z,5.23
2018-07-13T07:36:21.874Z,4.49
2018-07-13T07:42:16.857Z,4.37
2018-07-13T07:48:11.965Z,4.73
2018-07-13T07:54:06.939Z,6.69
2018-07-13T08:00:01.832Z,7.9
2018-07-13T08:05:56.850Z,7.05
2018-07-13T08:11:51.852Z,6.48
2018-07-13T08:17:46.871Z,5.9
2018-07-13T08:23:41.858Z,4.86
2018-07-13T08:29:36.866Z,4.94
2018-07-13T08:35:31.902Z,4.97
2018-07-13T08:41:26.896Z,4.34
2018-07-13T08:47:21.885Z,4.57
2018-07-13T08:53:16.876Z,3.84
2018-07-13T08:59:11.887Z,4.02
2018-07-13T09:05:06.926Z,3.73
2018-07-13T09:11:01.886Z,3.09
2018-07-13T09:16:56.901Z,3.15
2018-07-13T09:22:51.914Z,3.94
2018-07-13T09:28:46.912Z,3.51
2018-07-13T09:34:41.923Z,3.11
2018-07-13T09:40:36.913Z,2.77
2018-07-13T09:46:32.026Z,2.39
2018-07-13T09:52:26.963Z,2.55
2018-07-13T09:58:21.951Z,1.97
2018-07-13T10:04:16.929Z,2.29
2018-07-13T10:10:11.945Z,2.45
2018-07-13T10:16:07.040Z,2.58
2018-07-13T10:22:01.975Z,2.75
2018-07-13T10:27:56.959Z,2.45
2018-07-13T10:33:51.963Z,2.61
2018-07-13T10:39:46.994Z,2.3
2018-07-13T10:45:42.038Z,2.3
2018-07-13T10:51:37.140Z,2.52
2018-07-13T10:57:31.997Z,2.81
2018-07-13T11:03:27.009Z,2.93
2018-07-13T11:09:22.007Z,2.16
2018-07-13T11:15:17.008Z,2.39
2018-07-13T11:21:12.022Z,2.38
2018-07-13T11:27:06.999Z,2.2
2018-07-13T11:33:02.017Z,2.03
2018-07-13T11:38:57.018Z,2.02
2018-07-13T11:44:52.030Z,2.18
2018-07-13T11:50:47.021Z,1.61
2018-07-13T11:56:42.026Z,1.73
2018-07-13T12:02:37.039Z,1.72
2018-07-13T12:08:32.027Z,1.77
2018-07-13T12:14:27.050Z,1.86
2018-07-13T12:20:22.138Z,1.7
2018-07-13T12:26:17.054Z,1.92
2018-07-13T12:32:12.049Z,2.05
2018-07-13T12:38:07.049Z,2.17
2018-07-13T12:44:02.098Z,1.86
2018-07-13T12:49:57.072Z,2.35
2018-07-13T12:55:52.066Z,2.38
2018-07-13T13:01:47.076Z,2.71
2018-07-13T13:07:42.091Z,2.89
2018-07-13T13:13:37.082Z,2.39
2018-07-13T13:19:32.109Z,2.38
2018-07-13T13:25:27.117Z,2.34
2018-07-13T13:31:22.108Z,2.59
2018-07-13T13:37:17.171Z,2.7
2018-07-13T13:43:12.104Z,2.19
2018-07-13T13:49:07.130Z,2.49
2018-07-13T13:55:02.248Z,2.38
2018-07-13T14:00:57.132Z,2.49
2018-07-13T14:06:52.164Z,2.45
2018-07-13T14:12:47.130Z,2.4
2018-07-13T14:18:42.163Z,2.57
2018-07-13T14:24:37.166Z,2.28
2018-07-13T14:30:32.150Z,2.63
2018-07-13T14:36:27.235Z,2.29
2018-07-13T14:42:22.151Z,2.55
2018-07-13T14:48:17.146Z,2.84
2018-07-13T14:54:12.178Z,2.68
2018-07-13T15:00:07.185Z,2.46
2018-07-13T15:06:02.310Z,2.58
2018-07-13T15:11:57.193Z,2.65
2018-07-13T15:17:52.291Z,2.78
2018-07-13T15:23:47.199Z,2.81
2018-07-13T15:29:42.256Z,2.63
2018-07-13T15:35:37.205Z,2.89
2018-07-13T15:41:32.191Z,3.05
2018-07-13T15:47:27.212Z,2.93
2018-07-13T15:53:22.227Z,3.3
2018-07-13T15:59:17.255Z,2.81
2018-07-13T16:05:12.350Z,3.34
2018-07-13T16:11:07.278Z,2.64
2018-07-13T16:17:02.236Z,2.91
2018-07-13T16:22:57.282Z,2.59
2018-07-13T16:28:52.237Z,2.5
2018-07-13T16:34:47.289Z,2.79
2018-07-13T16:40:42.299Z,2.81
2018-07-13T16:46:37.257Z,2.37
2018-07-13T16:52:32.270Z,2.42
2018-07-13T16:58:27.278Z,2.39
2018-07-13T17:04:22.264Z,2.51
2018-07-13T17:10:17.311Z,2.74
2018-07-13T17:16:12.296Z,2.5
2018-07-13T17:22:07.316Z,2.52
2018-07-13T17:28:02.311Z,3.12
2018-07-13T17:33:57.319Z,2.5
2018-07-13T17:39:52.312Z,2.55
2018-07-13T17:45:47.309Z,2.71
2018-07-13T17:51:42.308Z,2.68
2018-07-13T17:57:37.302Z,2.8
2018-07-13T18:03:32.349Z,2.54
2018-07-13T18:09:27.332Z,2.92
2018-07-13T18:15:22.313Z,2.68
2018-07-13T18:21:17.314Z,2.86
2018-07-13T18:27:12.397Z,3.21
2018-07-13T18:33:07.387Z,3.22
2018-07-13T18:39:02.384Z,2.79
2018-07-13T18:44:57.358Z,3.01
2018-07-13T18:50:52.350Z,2.89
2018-07-13T18:56:47.379Z,3
2018-07-13T19:02:42.361Z,2.93
2018-07-13T19:08:37.363Z,2.91
2018-07-13T19:14:32.379Z,3.06
2018-07-13T19:20:27.377Z,3.07
2018-07-13T19:26:22.366Z,3.6
2018-07-13T19:32:17.387Z,3.02
2018-07-13T19:38:12.445Z,2.61
2018-07-13T19:44:07.384Z,2.67
2018-07-13T19:50:02.419Z,3.27
2018-07-13T19:55:57.377Z,3.19
2018-07-13T20:01:52.390Z,3.69
2018-07-13T20:07:47.453Z,3.61
2018-07-13T20:13:42.397Z,2.97
2018-07-13T20:19:37.428Z,3.3
2018-07-13T20:25:32.422Z,3.64
2018-07-13T20:31:27.475Z,3.51
2018-07-13T20:37:22.437Z,3.28
2018-07-13T20:43:17.430Z,3.49
2018-07-13T20:49:12.431Z,3.32
2018-07-13T20:55:07.425Z,3.22
2018-07-13T21:01:02.446Z,3.76
2018-07-13T21:06:57.453Z,3.33
2018-07-13T21:12:52.455Z,3.47
2018-07-13T21:18:47.490Z,3.42
2018-07-13T21:24:42.479Z,3.05
2018-07-13T21:30:37.483Z,3.11
2018-07-13T21:36:32.477Z,3.66
2018-07-13T21:42:27.547Z,3.38
2018-07-13T21:48:22.504Z,3.41
2018-07-13T21:54:17.465Z,2.99
2018-07-13T22:00:12.478Z,3.04
2018-07-13T22:06:07.549Z,3.39
2018-07-13T22:12:02.534Z,3.04
2018-07-13T22:17:57.568Z,3.17
2018-07-13T22:23:52.615Z,3.09
2018-07-13T22:29:47.529Z,2.96
2018-07-13T22:35:42.529Z,3.12
2018-07-13T22:41:37.531Z,3.23
2018-07-13T22:47:32.521Z,3.23
2018-07-13T22:53:27.559Z,3.53
2018-07-13T22:59:22.540Z,3.17
2018-07-13T23:05:17.580Z,3.32
2018-07-13T23:11:12.567Z,3.6
2018-07-13T23:17:07.554Z,3.46
2018-07-13T23:23:02.606Z,3.48
2018-07-13T23:28:57.563Z,3.8
2018-07-13T23:34:52.602Z,3.69
2018-07-13T23:40:47.563Z,3.7
2018-07-13T23:46:42.585Z,3.7
2018-07-13T23:52:37.582Z,3.79
2018-07-13T23:58:32.603Z,3.47
